sensor_id;sensor_type;location;lat;lon;timestamp;P1;durP1;ratioP1;P2;durP2;ratioP2
49175;SDS011;35012;47.200;9.748;2022-07-12T00:01:02;6.17;;;5.87;;
49175;SDS011;35012;47.200;9.748;2022-07-12T00:03:28;5.80;;;5.40;;
49175;SDS011;35012;47.200;9.748;2022-07-12T00:05:53;5.83;;;5.43;;
49175;SDS011;35012;47.200;9.748;2022-07-12T00:08:19;5.83;;;5.43;;
49175;SDS011;35012;47.200;9.748;2022-07-12T00:10:44;5.70;;;5.30;;
49175;SDS011;35012;47.200;9.748;2022-07-12T00:13:10;5.80;;;5.40;;
49175;SDS011;35012;47.200;9.748;2022-07-12T00:15:36;5.37;;;5.07;;
49175;SDS011;35012;47.200;9.748;2022-07-12T00:18:01;5.70;;;5.30;;
49175;SDS011;35012;47.200;9.748;2022-07-12T00:20:27;5.67;;;5.37;;
49175;SDS011;35012;47.200;9.748;2022-07-12T00:22:54;5.73;;;5.43;;
49175;SDS011;35012;47.200;9.748;2022-07-12T00:25:19;6.23;;;5.83;;
49175;SDS011;35012;47.200;9.748;2022-07-12T00:27:45;6.40;;;6.00;;
49175;SDS011;35012;47.200;9.748;2022-07-12T00:30:11;7.07;;;5.70;;
49175;SDS011;35012;47.200;9.748;2022-07-12T00:32:36;6.17;;;5.77;;
49175;SDS011;35012;47.200;9.748;2022-07-12T00:35:02;6.53;;;6.13;;
49175;SDS011;35012;47.200;9.748;2022-07-12T00:37:28;6.03;;;5.57;;
49175;SDS011;35012;47.200;9.748;2022-07-12T00:39:53;6.27;;;5.87;;
49175;SDS011;35012;47.200;9.748;2022-07-12T00:42:20;6.07;;;5.67;;
49175;SDS011;35012;47.200;9.748;2022-07-12T00:44:46;6.33;;;5.83;;
49175;SDS011;35012;47.200;9.748;2022-07-12T00:47:20;6.47;;;6.07;;
49175;SDS011;35012;47.200;9.748;2022-07-12T00:50:19;6.43;;;5.97;;
49175;SDS011;35012;47.200;9.748;2022-07-12T00:52:46;5.57;;;5.27;;
49175;SDS011;35012;47.200;9.748;2022-07-12T00:55:13;6.50;;;6.10;;
49175;SDS011;35012;47.200;9.748;2022-07-12T00:57:40;6.30;;;6.00;;
49175;SDS011;35012;47.200;9.748;2022-07-12T01:00:08;6.20;;;5.80;;
49175;SDS011;35012;47.200;9.748;2022-07-12T01:02:36;6.23;;;5.83;;
49175;SDS011;35012;47.200;9.748;2022-07-12T01:05:02;6.30;;;5.90;;
49175;SDS011;35012;47.200;9.748;2022-07-12T01:07:29;6.90;;;6.33;;
49175;SDS011;35012;47.200;9.748;2022-07-12T01:09:55;6.30;;;5.87;;
49175;SDS011;35012;47.200;9.748;2022-07-12T01:12:21;6.30;;;5.90;;
49175;SDS011;35012;47.200;9.748;2022-07-12T01:14:47;6.63;;;6.20;;
49175;SDS011;35012;47.200;9.748;2022-07-12T01:17:15;6.20;;;5.80;;
49175;SDS011;35012;47.200;9.748;2022-07-12T01:19:48;6.20;;;5.80;;
49175;SDS011;35012;47.200;9.748;2022-07-12T01:22:15;6.70;;;5.97;;
49175;SDS011;35012;47.200;9.748;2022-07-12T01:24:43;7.10;;;6.60;;
49175;SDS011;35012;47.200;9.748;2022-07-12T01:27:11;6.70;;;6.10;;
49175;SDS011;35012;47.200;9.748;2022-07-12T01:29:37;6.43;;;6.03;;
49175;SDS011;35012;47.200;9.748;2022-07-12T01:32:04;7.07;;;6.67;;
49175;SDS011;35012;47.200;9.748;2022-07-12T01:34:49;6.70;;;6.30;;
49175;SDS011;35012;47.200;9.748;2022-07-12T01:37:20;6.83;;;6.43;;
49175;SDS011;35012;47.200;9.748;2022-07-12T01:39:47;7.13;;;6.70;;
49175;SDS011;35012;47.200;9.748;2022-07-12T01:42:14;7.37;;;6.97;;
49175;SDS011;35012;47.200;9.748;2022-07-12T01:44:40;7.90;;;7.30;;
49175;SDS011;35012;47.200;9.748;2022-07-12T01:47:06;7.40;;;6.87;;
49175;SDS011;35012;47.200;9.748;2022-07-12T01:49:31;6.50;;;6.10;;
49175;SDS011;35012;47.200;9.748;2022-07-12T01:51:57;6.47;;;6.07;;
49175;SDS011;35012;47.200;9.748;2022-07-12T01:54:24;6.47;;;6.00;;
49175;SDS011;35012;47.200;9.748;2022-07-12T01:56:50;6.77;;;6.37;;
49175;SDS011;35012;47.200;9.748;2022-07-12T01:59:17;7.13;;;6.63;;
49175;SDS011;35012;47.200;9.748;2022-07-12T02:01:43;7.97;;;7.47;;
49175;SDS011;35012;47.200;9.748;2022-07-12T02:04:09;8.17;;;7.67;;
49175;SDS011;35012;47.200;9.748;2022-07-12T02:06:34;6.40;;;6.00;;
49175;SDS011;35012;47.200;9.748;2022-07-12T02:09:00;6.40;;;6.00;;
49175;SDS011;35012;47.200;9.748;2022-07-12T02:11:26;8.90;;;8.30;;
49175;SDS011;35012;47.200;9.748;2022-07-12T02:13:51;8.03;;;7.47;;
49175;SDS011;35012;47.200;9.748;2022-07-12T02:16:17;8.57;;;7.97;;
49175;SDS011;35012;47.200;9.748;2022-07-12T02:18:42;7.83;;;7.33;;
49175;SDS011;35012;47.200;9.748;2022-07-12T02:21:08;9.33;;;8.73;;
49175;SDS011;35012;47.200;9.748;2022-07-12T02:23:33;7.33;;;6.77;;
49175;SDS011;35012;47.200;9.748;2022-07-12T02:25:59;6.77;;;6.27;;
49175;SDS011;35012;47.200;9.748;2022-07-12T02:28:24;7.20;;;6.70;;
49175;SDS011;35012;47.200;9.748;2022-07-12T02:30:50;6.70;;;6.20;;
49175;SDS011;35012;47.200;9.748;2022-07-12T02:33:15;8.90;;;8.30;;
49175;SDS011;35012;47.200;9.748;2022-07-12T02:35:42;7.50;;;7.00;;
49175;SDS011;35012;47.200;9.748;2022-07-12T02:38:07;8.60;;;8.07;;
49175;SDS011;35012;47.200;9.748;2022-07-12T02:40:33;9.47;;;8.87;;
49175;SDS011;35012;47.200;9.748;2022-07-12T02:43:17;8.63;;;8.03;;
49175;SDS011;35012;47.200;9.748;2022-07-12T02:45:43;8.33;;;7.83;;
49175;SDS011;35012;47.200;9.748;2022-07-12T02:48:08;7.77;;;7.30;;
49175;SDS011;35012;47.200;9.748;2022-07-12T02:50:37;9.13;;;8.63;;
49175;SDS011;35012;47.200;9.748;2022-07-12T02:53:08;7.03;;;6.63;;
49175;SDS011;35012;47.200;9.748;2022-07-12T02:55:35;7.17;;;6.77;;
49175;SDS011;35012;47.200;9.748;2022-07-12T02:58:01;8.07;;;7.47;;
49175;SDS011;35012;47.200;9.748;2022-07-12T03:00:28;8.60;;;8.00;;
49175;SDS011;35012;47.200;9.748;2022-07-12T03:02:58;8.27;;;7.77;;
49175;SDS011;35012;47.200;9.748;2022-07-12T03:05:27;9.40;;;8.90;;
49175;SDS011;35012;47.200;9.748;2022-07-12T03:07:56;8.77;;;8.00;;
49175;SDS011;35012;47.200;9.748;2022-07-12T03:10:25;7.10;;;6.60;;
49175;SDS011;35012;47.200;9.748;2022-07-12T03:12:54;9.07;;;8.57;;
49175;SDS011;35012;47.200;9.748;2022-07-12T03:15:25;8.47;;;7.93;;
49175;SDS011;35012;47.200;9.748;2022-07-12T03:17:56;7.50;;;7.03;;
49175;SDS011;35012;47.200;9.748;2022-07-12T03:20:28;11.00;;;10.10;;
49175;SDS011;35012;47.200;9.748;2022-07-12T03:22:58;9.30;;;8.60;;
49175;SDS011;35012;47.200;9.748;2022-07-12T03:25:23;9.13;;;8.63;;
49175;SDS011;35012;47.200;9.748;2022-07-12T03:27:50;7.57;;;6.97;;
49175;SDS011;35012;47.200;9.748;2022-07-12T03:30:16;10.67;;;9.77;;
49175;SDS011;35012;47.200;9.748;2022-07-12T03:32:42;8.77;;;8.17;;
49175;SDS011;35012;47.200;9.748;2022-07-12T03:35:09;8.87;;;8.37;;
49175;SDS011;35012;47.200;9.748;2022-07-12T03:37:47;11.00;;;10.40;;
49175;SDS011;35012;47.200;9.748;2022-07-12T03:40:14;28.47;;;26.93;;
49175;SDS011;35012;47.200;9.748;2022-07-12T03:42:42;29.30;;;27.97;;
49175;SDS011;35012;47.200;9.748;2022-07-12T03:45:08;15.83;;;14.93;;
49175;SDS011;35012;47.200;9.748;2022-07-12T03:47:34;12.17;;;11.40;;
49175;SDS011;35012;47.200;9.748;2022-07-12T03:50:02;12.70;;;11.80;;
49175;SDS011;35012;47.200;9.748;2022-07-12T03:52:32;22.00;;;20.70;;
49175;SDS011;35012;47.200;9.748;2022-07-12T03:54:58;18.27;;;17.37;;
49175;SDS011;35012;47.200;9.748;2022-07-12T03:57:24;34.33;;;32.50;;
49175;SDS011;35012;47.200;9.748;2022-07-12T03:59:51;22.60;;;21.50;;
49175;SDS011;35012;47.200;9.748;2022-07-12T04:02:16;26.30;;;25.00;;
49175;SDS011;35012;47.200;9.748;2022-07-12T04:04:42;32.13;;;30.50;;
49175;SDS011;35012;47.200;9.748;2022-07-12T04:07:08;104.50;;;99.97;;
49175;SDS011;35012;47.200;9.748;2022-07-12T04:09:33;25.60;;;23.90;;
49175;SDS011;35012;47.200;9.748;2022-07-12T04:11:59;28.10;;;26.60;;
49175;SDS011;35012;47.200;9.748;2022-07-12T04:14:24;50.27;;;47.97;;
49175;SDS011;35012;47.200;9.748;2022-07-12T04:16:50;121.53;;;116.10;;
49175;SDS011;35012;47.200;9.748;2022-07-12T04:19:15;24.80;;;23.47;;
49175;SDS011;35012;47.200;9.748;2022-07-12T04:21:41;17.77;;;16.57;;
49175;SDS011;35012;47.200;9.748;2022-07-12T04:24:06;22.27;;;21.10;;
49175;SDS011;35012;47.200;9.748;2022-07-12T04:26:32;75.33;;;72.03;;
49175;SDS011;35012;47.200;9.748;2022-07-12T04:28:58;37.33;;;35.53;;
49175;SDS011;35012;47.200;9.748;2022-07-12T04:31:24;34.00;;;32.27;;
49175;SDS011;35012;47.200;9.748;2022-07-12T04:33:49;43.83;;;41.87;;
49175;SDS011;35012;47.200;9.748;2022-07-12T04:36:15;61.67;;;58.73;;
49175;SDS011;35012;47.200;9.748;2022-07-12T04:38:41;15.97;;;15.07;;
49175;SDS011;35012;47.200;9.748;2022-07-12T04:41:06;28.23;;;26.73;;
49175;SDS011;35012;47.200;9.748;2022-07-12T04:43:32;38.53;;;36.63;;
49175;SDS011;35012;47.200;9.748;2022-07-12T04:46:10;87.70;;;83.70;;
49175;SDS011;35012;47.200;9.748;2022-07-12T04:48:36;29.60;;;28.10;;
49175;SDS011;35012;47.200;9.748;2022-07-12T04:51:02;39.80;;;37.83;;
49175;SDS011;35012;47.200;9.748;2022-07-12T04:53:28;118.53;;;113.33;;
49175;SDS011;35012;47.200;9.748;2022-07-12T04:55:54;28.07;;;26.67;;
49175;SDS011;35012;47.200;9.748;2022-07-12T04:58:20;17.57;;;16.67;;
49175;SDS011;35012;47.200;9.748;2022-07-12T05:00:46;31.60;;;30.07;;
49175;SDS011;35012;47.200;9.748;2022-07-12T05:03:12;55.90;;;53.30;;
49175;SDS011;35012;47.200;9.748;2022-07-12T05:05:38;77.27;;;73.67;;
49175;SDS011;35012;47.200;9.748;2022-07-12T05:08:03;61.97;;;58.97;;
49175;SDS011;35012;47.200;9.748;2022-07-12T05:10:29;58.80;;;56.10;;
49175;SDS011;35012;47.200;9.748;2022-07-12T05:12:55;56.83;;;54.30;;
49175;SDS011;35012;47.200;9.748;2022-07-12T05:15:21;60.23;;;57.37;;
49175;SDS011;35012;47.200;9.748;2022-07-12T05:17:46;75.70;;;72.47;;
49175;SDS011;35012;47.200;9.748;2022-07-12T05:20:12;63.67;;;60.80;;
49175;SDS011;35012;47.200;9.748;2022-07-12T05:22:37;63.53;;;60.73;;
49175;SDS011;35012;47.200;9.748;2022-07-12T05:25:03;55.00;;;52.70;;
49175;SDS011;35012;47.200;9.748;2022-07-12T05:27:30;45.30;;;43.03;;
49175;SDS011;35012;47.200;9.748;2022-07-12T05:29:55;59.20;;;56.47;;
49175;SDS011;35012;47.200;9.748;2022-07-12T05:32:21;87.77;;;84.03;;
49175;SDS011;35012;47.200;9.748;2022-07-12T05:34:48;93.60;;;89.67;;
49175;SDS011;35012;47.200;9.748;2022-07-12T05:37:14;112.00;;;107.20;;
49175;SDS011;35012;47.200;9.748;2022-07-12T05:39:40;124.03;;;118.70;;
49175;SDS011;35012;47.200;9.748;2022-07-12T05:42:05;73.50;;;70.27;;
49175;SDS011;35012;47.200;9.748;2022-07-12T05:44:31;69.33;;;66.37;;
49175;SDS011;35012;47.200;9.748;2022-07-12T05:46:57;66.77;;;63.80;;
49175;SDS011;35012;47.200;9.748;2022-07-12T05:49:23;68.37;;;65.47;;
49175;SDS011;35012;47.200;9.748;2022-07-12T05:51:48;72.47;;;69.30;;
49175;SDS011;35012;47.200;9.748;2022-07-12T05:54:32;58.50;;;55.87;;
49175;SDS011;35012;47.200;9.748;2022-07-12T05:56:58;73.20;;;69.93;;
49175;SDS011;35012;47.200;9.748;2022-07-12T05:59:23;71.93;;;68.77;;
49175;SDS011;35012;47.200;9.748;2022-07-12T06:01:49;111.03;;;106.27;;
49175;SDS011;35012;47.200;9.748;2022-07-12T06:04:14;111.00;;;106.40;;
49175;SDS011;35012;47.200;9.748;2022-07-12T06:06:40;78.67;;;75.23;;
49175;SDS011;35012;47.200;9.748;2022-07-12T06:09:06;57.40;;;54.73;;
49175;SDS011;35012;47.200;9.748;2022-07-12T06:11:32;76.27;;;73.00;;
49175;SDS011;35012;47.200;9.748;2022-07-12T06:13:58;61.53;;;58.77;;
49175;SDS011;35012;47.200;9.748;2022-07-12T06:16:24;31.83;;;30.10;;
49175;SDS011;35012;47.200;9.748;2022-07-12T06:18:50;67.70;;;64.80;;
49175;SDS011;35012;47.200;9.748;2022-07-12T06:21:15;56.37;;;54.00;;
49175;SDS011;35012;47.200;9.748;2022-07-12T06:23:41;66.13;;;63.23;;
49175;SDS011;35012;47.200;9.748;2022-07-12T06:26:07;25.83;;;24.67;;
49175;SDS011;35012;47.200;9.748;2022-07-12T06:28:32;22.87;;;21.67;;
49175;SDS011;35012;47.200;9.748;2022-07-12T06:30:58;22.70;;;21.63;;
49175;SDS011;35012;47.200;9.748;2022-07-12T06:33:23;22.10;;;21.13;;
49175;SDS011;35012;47.200;9.748;2022-07-12T06:35:49;20.57;;;19.57;;
49175;SDS011;35012;47.200;9.748;2022-07-12T06:38:15;26.00;;;24.60;;
49175;SDS011;35012;47.200;9.748;2022-07-12T06:40:41;23.07;;;22.00;;
49175;SDS011;35012;47.200;9.748;2022-07-12T06:43:10;23.83;;;22.83;;
49175;SDS011;35012;47.200;9.748;2022-07-12T06:45:37;24.50;;;23.37;;
49175;SDS011;35012;47.200;9.748;2022-07-12T06:48:02;25.83;;;24.63;;
49175;SDS011;35012;47.200;9.748;2022-07-12T06:50:28;27.23;;;25.83;;
49175;SDS011;35012;47.200;9.748;2022-07-12T06:52:54;26.85;;;25.58;;
49175;SDS011;35012;47.200;9.748;2022-07-12T06:55:19;27.33;;;26.00;;
49175;SDS011;35012;47.200;9.748;2022-07-12T06:57:45;27.00;;;25.50;;
49175;SDS011;35012;47.200;9.748;2022-07-12T07:00:10;28.10;;;26.80;;
49175;SDS011;35012;47.200;9.748;2022-07-12T07:02:37;28.40;;;27.10;;
49175;SDS011;35012;47.200;9.748;2022-07-12T07:05:04;29.08;;;27.67;;
49175;SDS011;35012;47.200;9.748;2022-07-12T07:07:31;29.40;;;28.05;;
49175;SDS011;35012;47.200;9.748;2022-07-12T07:09:56;28.98;;;27.58;;
49175;SDS011;35012;47.200;9.748;2022-07-12T07:12:22;29.88;;;28.50;;
49175;SDS011;35012;47.200;9.748;2022-07-12T07:14:48;31.33;;;29.92;;
49175;SDS011;35012;47.200;9.748;2022-07-12T07:17:16;28.65;;;27.15;;
49175;SDS011;35012;47.200;9.748;2022-07-12T07:19:43;28.80;;;27.58;;
49175;SDS011;35012;47.200;9.748;2022-07-12T07:22:09;30.05;;;28.67;;
49175;SDS011;35012;47.200;9.748;2022-07-12T07:24:35;29.77;;;28.27;;
49175;SDS011;35012;47.200;9.748;2022-07-12T07:27:01;30.10;;;28.48;;
49175;SDS011;35012;47.200;9.748;2022-07-12T07:29:27;30.92;;;29.52;;
49175;SDS011;35012;47.200;9.748;2022-07-12T07:32:10;29.38;;;28.08;;
49175;SDS011;35012;47.200;9.748;2022-07-12T07:34:37;26.58;;;25.38;;
49175;SDS011;35012;47.200;9.748;2022-07-12T07:37:02;27.60;;;26.38;;
49175;SDS011;35012;47.200;9.748;2022-07-12T07:39:28;27.50;;;26.30;;
49175;SDS011;35012;47.200;9.748;2022-07-12T07:41:53;25.52;;;24.33;;
49175;SDS011;35012;47.200;9.748;2022-07-12T07:44:19;23.13;;;22.00;;
49175;SDS011;35012;47.200;9.748;2022-07-12T07:46:44;23.85;;;22.75;;
49175;SDS011;35012;47.200;9.748;2022-07-12T07:49:10;24.42;;;23.33;;
49175;SDS011;35012;47.200;9.748;2022-07-12T07:51:35;25.27;;;24.08;;
49175;SDS011;35012;47.200;9.748;2022-07-12T07:54:01;23.10;;;22.10;;
49175;SDS011;35012;47.200;9.748;2022-07-12T07:56:28;24.02;;;22.92;;
49175;SDS011;35012;47.200;9.748;2022-07-12T07:58:54;24.77;;;23.67;;
49175;SDS011;35012;47.200;9.748;2022-07-12T08:01:19;25.38;;;24.25;;
49175;SDS011;35012;47.200;9.748;2022-07-12T08:03:45;26.17;;;24.98;;
49175;SDS011;35012;47.200;9.748;2022-07-12T08:06:10;25.45;;;24.33;;
49175;SDS011;35012;47.200;9.748;2022-07-12T08:08:36;26.85;;;25.65;;
49175;SDS011;35012;47.200;9.748;2022-07-12T08:11:01;28.52;;;27.30;;
49175;SDS011;35012;47.200;9.748;2022-07-12T08:13:28;26.08;;;24.70;;
49175;SDS011;35012;47.200;9.748;2022-07-12T08:15:53;30.45;;;29.05;;
49175;SDS011;35012;47.200;9.748;2022-07-12T08:18:19;33.78;;;32.33;;
49175;SDS011;35012;47.200;9.748;2022-07-12T08:20:44;30.10;;;28.70;;
49175;SDS011;35012;47.200;9.748;2022-07-12T08:23:10;30.08;;;28.42;;
49175;SDS011;35012;47.200;9.748;2022-07-12T08:25:36;29.90;;;28.40;;
49175;SDS011;35012;47.200;9.748;2022-07-12T08:28:01;29.40;;;28.08;;
49175;SDS011;35012;47.200;9.748;2022-07-12T08:30:27;31.08;;;29.67;;
49175;SDS011;35012;47.200;9.748;2022-07-12T08:32:53;34.25;;;32.55;;
49175;SDS011;35012;47.200;9.748;2022-07-12T08:35:20;31.58;;;30.02;;
49175;SDS011;35012;47.200;9.748;2022-07-12T08:37:45;29.42;;;28.00;;
49175;SDS011;35012;47.200;9.748;2022-07-12T08:40:11;30.95;;;29.60;;
49175;SDS011;35012;47.200;9.748;2022-07-12T08:42:40;35.00;;;33.47;;
49175;SDS011;35012;47.200;9.748;2022-07-12T08:45:06;31.48;;;29.98;;
49175;SDS011;35012;47.200;9.748;2022-07-12T08:47:32;29.00;;;27.67;;
49175;SDS011;35012;47.200;9.748;2022-07-12T08:52:38;34.75;;;33.17;;
49175;SDS011;35012;47.200;9.748;2022-07-12T08:57:59;37.30;;;35.47;;
49175;SDS011;35012;47.200;9.748;2022-07-12T09:00:27;42.35;;;40.42;;
49175;SDS011;35012;47.200;9.748;2022-07-12T09:02:54;40.35;;;38.55;;
49175;SDS011;35012;47.200;9.748;2022-07-12T09:05:22;45.40;;;43.50;;
49175;SDS011;35012;47.200;9.748;2022-07-12T09:07:49;38.25;;;36.35;;
49175;SDS011;35012;47.200;9.748;2022-07-12T09:10:15;36.60;;;34.95;;
49175;SDS011;35012;47.200;9.748;2022-07-12T09:12:41;39.83;;;37.80;;
49175;SDS011;35012;47.200;9.748;2022-07-12T09:15:16;37.22;;;35.63;;
49175;SDS011;35012;47.200;9.748;2022-07-12T09:17:46;37.85;;;36.15;;
49175;SDS011;35012;47.200;9.748;2022-07-12T09:20:41;33.00;;;31.40;;
49175;SDS011;35012;47.200;9.748;2022-07-12T09:23:11;51.03;;;48.67;;
49175;SDS011;35012;47.200;9.748;2022-07-12T09:25:37;54.90;;;52.13;;
49175;SDS011;35012;47.200;9.748;2022-07-12T09:28:07;32.88;;;31.27;;
49175;SDS011;35012;47.200;9.748;2022-07-12T09:30:34;41.10;;;39.15;;
49175;SDS011;35012;47.200;9.748;2022-07-12T09:33:04;44.10;;;42.15;;
49175;SDS011;35012;47.200;9.748;2022-07-12T09:38:35;37.80;;;36.13;;
49175;SDS011;35012;47.200;9.748;2022-07-12T09:41:02;48.88;;;46.80;;
49175;SDS011;35012;47.200;9.748;2022-07-12T09:43:29;34.40;;;32.90;;
49175;SDS011;35012;47.200;9.748;2022-07-12T09:45:55;36.58;;;34.95;;
49175;SDS011;35012;47.200;9.748;2022-07-12T09:48:20;41.40;;;39.60;;
49175;SDS011;35012;47.200;9.748;2022-07-12T09:50:50;38.75;;;37.10;;
49175;SDS011;35012;47.200;9.748;2022-07-12T09:53:20;43.15;;;41.25;;
49175;SDS011;35012;47.200;9.748;2022-07-12T09:55:53;34.55;;;32.92;;
49175;SDS011;35012;47.200;9.748;2022-07-12T09:58:47;35.78;;;34.25;;
49175;SDS011;35012;47.200;9.748;2022-07-12T10:01:18;39.75;;;37.72;;
49175;SDS011;35012;47.200;9.748;2022-07-12T10:03:44;38.47;;;36.83;;
49175;SDS011;35012;47.200;9.748;2022-07-12T10:06:15;35.38;;;33.38;;
49175;SDS011;35012;47.200;9.748;2022-07-12T10:08:42;38.67;;;36.85;;
49175;SDS011;35012;47.200;9.748;2022-07-12T10:11:08;40.35;;;38.53;;
49175;SDS011;35012;47.200;9.748;2022-07-12T10:13:33;36.55;;;34.78;;
49175;SDS011;35012;47.200;9.748;2022-07-12T10:16:00;39.15;;;37.25;;
49175;SDS011;35012;47.200;9.748;2022-07-12T10:18:27;60.60;;;58.00;;
49175;SDS011;35012;47.200;9.748;2022-07-12T10:20:53;42.95;;;40.95;;
49175;SDS011;35012;47.200;9.748;2022-07-12T10:25:55;42.08;;;40.10;;
49175;SDS011;35012;47.200;9.748;2022-07-12T10:28:21;41.00;;;38.80;;
49175;SDS011;35012;47.200;9.748;2022-07-12T10:30:47;57.60;;;55.15;;
49175;SDS011;35012;47.200;9.748;2022-07-12T10:33:23;41.17;;;39.35;;
49175;SDS011;35012;47.200;9.748;2022-07-12T10:35:58;43.80;;;41.88;;
49175;SDS011;35012;47.200;9.748;2022-07-12T10:38:25;40.65;;;38.88;;
49175;SDS011;35012;47.200;9.748;2022-07-12T10:40:51;44.03;;;41.90;;
49175;SDS011;35012;47.200;9.748;2022-07-12T10:43:18;48.63;;;46.42;;
49175;SDS011;35012;47.200;9.748;2022-07-12T10:45:45;50.63;;;48.47;;
49175;SDS011;35012;47.200;9.748;2022-07-12T10:58:32;43.88;;;41.75;;
49175;SDS011;35012;47.200;9.748;2022-07-12T11:01:15;41.50;;;39.63;;
49175;SDS011;35012;47.200;9.748;2022-07-12T11:03:53;53.67;;;51.17;;
49175;SDS011;35012;47.200;9.748;2022-07-12T11:06:38;45.97;;;44.03;;
49175;SDS011;35012;47.200;9.748;2022-07-12T11:09:06;35.00;;;33.30;;
49175;SDS011;35012;47.200;9.748;2022-07-12T11:11:34;42.70;;;40.88;;
49175;SDS011;35012;47.200;9.748;2022-07-12T11:14:10;38.95;;;37.15;;
49175;SDS011;35012;47.200;9.748;2022-07-12T11:16:45;53.47;;;51.03;;
49175;SDS011;35012;47.200;9.748;2022-07-12T11:19:12;33.58;;;32.05;;
49175;SDS011;35012;47.200;9.748;2022-07-12T11:21:38;35.00;;;33.33;;
49175;SDS011;35012;47.200;9.748;2022-07-12T11:24:14;34.90;;;33.30;;
49175;SDS011;35012;47.200;9.748;2022-07-12T11:26:43;35.67;;;34.00;;
49175;SDS011;35012;47.200;9.748;2022-07-12T11:29:09;44.50;;;42.47;;
49175;SDS011;35012;47.200;9.748;2022-07-12T11:31:36;37.97;;;36.22;;
49175;SDS011;35012;47.200;9.748;2022-07-12T11:34:02;38.80;;;37.08;;
49175;SDS011;35012;47.200;9.748;2022-07-12T11:36:28;38.17;;;36.47;;
49175;SDS011;35012;47.200;9.748;2022-07-12T11:38:54;40.45;;;38.58;;
49175;SDS011;35012;47.200;9.748;2022-07-12T11:41:20;39.58;;;37.90;;
49175;SDS011;35012;47.200;9.748;2022-07-12T11:43:47;40.58;;;38.78;;
49175;SDS011;35012;47.200;9.748;2022-07-12T11:46:13;43.20;;;41.30;;
49175;SDS011;35012;47.200;9.748;2022-07-12T11:48:40;43.08;;;41.08;;
49175;SDS011;35012;47.200;9.748;2022-07-12T11:51:08;43.38;;;41.58;;
49175;SDS011;35012;47.200;9.748;2022-07-12T11:53:37;43.33;;;41.38;;
49175;SDS011;35012;47.200;9.748;2022-07-12T11:56:04;49.22;;;47.05;;
49175;SDS011;35012;47.200;9.748;2022-07-12T11:58:30;43.55;;;41.58;;
49175;SDS011;35012;47.200;9.748;2022-07-12T12:01:02;39.95;;;38.20;;
49175;SDS011;35012;47.200;9.748;2022-07-12T12:03:28;64.15;;;61.45;;
49175;SDS011;35012;47.200;9.748;2022-07-12T12:05:55;40.63;;;38.83;;
49175;SDS011;35012;47.200;9.748;2022-07-12T12:08:21;44.55;;;42.58;;
49175;SDS011;35012;47.200;9.748;2022-07-12T12:10:57;46.90;;;44.60;;
49175;SDS011;35012;47.200;9.748;2022-07-12T12:13:24;44.17;;;42.03;;
49175;SDS011;35012;47.200;9.748;2022-07-12T12:15:54;50.13;;;47.92;;
49175;SDS011;35012;47.200;9.748;2022-07-12T12:18:30;56.25;;;53.75;;
49175;SDS011;35012;47.200;9.748;2022-07-12T12:21:03;93.53;;;89.38;;
49175;SDS011;35012;47.200;9.748;2022-07-12T12:23:30;87.20;;;83.03;;
49175;SDS011;35012;47.200;9.748;2022-07-12T12:26:16;114.03;;;108.90;;
49175;SDS011;35012;47.200;9.748;2022-07-12T12:28:43;70.57;;;67.53;;
49175;SDS011;35012;47.200;9.748;2022-07-12T12:31:10;72.13;;;69.00;;
49175;SDS011;35012;47.200;9.748;2022-07-12T12:36:15;67.10;;;64.20;;
49175;SDS011;35012;47.200;9.748;2022-07-12T12:38:42;74.78;;;71.20;;
49175;SDS011;35012;47.200;9.748;2022-07-12T12:41:08;127.55;;;121.57;;
49175;SDS011;35012;47.200;9.748;2022-07-12T12:43:35;68.75;;;65.82;;
49175;SDS011;35012;47.200;9.748;2022-07-12T12:46:00;71.18;;;68.25;;
49175;SDS011;35012;47.200;9.748;2022-07-12T12:48:27;88.65;;;84.90;;
49175;SDS011;35012;47.200;9.748;2022-07-12T12:51:11;87.78;;;84.13;;
49175;SDS011;35012;47.200;9.748;2022-07-12T12:53:37;89.25;;;85.57;;
49175;SDS011;35012;47.200;9.748;2022-07-12T12:56:08;92.97;;;89.13;;
49175;SDS011;35012;47.200;9.748;2022-07-12T12:58:35;100.85;;;96.65;;
49175;SDS011;35012;47.200;9.748;2022-07-12T13:01:02;102.15;;;97.95;;
49175;SDS011;35012;47.200;9.748;2022-07-12T13:03:28;105.50;;;101.25;;
49175;SDS011;35012;47.200;9.748;2022-07-12T13:05:53;102.38;;;98.22;;
49175;SDS011;35012;47.200;9.748;2022-07-12T13:08:19;108.50;;;103.80;;
49175;SDS011;35012;47.200;9.748;2022-07-12T13:10:45;120.88;;;115.88;;
49175;SDS011;35012;47.200;9.748;2022-07-12T13:13:11;110.30;;;105.68;;
49175;SDS011;35012;47.200;9.748;2022-07-12T13:15:37;100.03;;;95.75;;
49175;SDS011;35012;47.200;9.748;2022-07-12T13:18:03;101.70;;;97.45;;
49175;SDS011;35012;47.200;9.748;2022-07-12T13:20:29;104.85;;;100.32;;
49175;SDS011;35012;47.200;9.748;2022-07-12T13:22:55;107.68;;;103.22;;
49175;SDS011;35012;47.200;9.748;2022-07-12T13:25:21;107.28;;;102.93;;
49175;SDS011;35012;47.200;9.748;2022-07-12T13:27:47;109.20;;;104.70;;
49175;SDS011;35012;47.200;9.748;2022-07-12T13:30:14;106.65;;;102.25;;
49175;SDS011;35012;47.200;9.748;2022-07-12T13:32:40;111.22;;;106.68;;
49175;SDS011;35012;47.200;9.748;2022-07-12T13:35:07;109.70;;;105.03;;
49175;SDS011;35012;47.200;9.748;2022-07-12T13:37:34;117.78;;;112.88;;
49175;SDS011;35012;47.200;9.748;2022-07-12T13:40:00;107.25;;;102.90;;
49175;SDS011;35012;47.200;9.748;2022-07-12T13:42:36;109.03;;;104.60;;
49175;SDS011;35012;47.200;9.748;2022-07-12T13:45:05;112.65;;;108.10;;
49175;SDS011;35012;47.200;9.748;2022-07-12T13:47:31;111.18;;;106.60;;
49175;SDS011;35012;47.200;9.748;2022-07-12T13:49:57;109.35;;;104.80;;
49175;SDS011;35012;47.200;9.748;2022-07-12T13:52:23;112.78;;;108.22;;
49175;SDS011;35012;47.200;9.748;2022-07-12T13:54:48;111.05;;;106.53;;
49175;SDS011;35012;47.200;9.748;2022-07-12T13:57:14;115.20;;;110.50;;
49175;SDS011;35012;47.200;9.748;2022-07-12T13:59:40;117.63;;;112.75;;
49175;SDS011;35012;47.200;9.748;2022-07-12T14:02:06;118.80;;;113.95;;
49175;SDS011;35012;47.200;9.748;2022-07-12T14:04:31;118.78;;;113.85;;
49175;SDS011;35012;47.200;9.748;2022-07-12T14:06:57;119.80;;;115.00;;
49175;SDS011;35012;47.200;9.748;2022-07-12T14:09:22;120.55;;;115.68;;
49175;SDS011;35012;47.200;9.748;2022-07-12T14:11:48;124.45;;;119.43;;
49175;SDS011;35012;47.200;9.748;2022-07-12T14:14:14;106.07;;;101.63;;
49175;SDS011;35012;47.200;9.748;2022-07-12T14:16:39;100.43;;;96.38;;
49175;SDS011;35012;47.200;9.748;2022-07-12T14:19:05;106.72;;;102.43;;
49175;SDS011;35012;47.200;9.748;2022-07-12T14:21:31;118.10;;;113.30;;
49175;SDS011;35012;47.200;9.748;2022-07-12T14:23:56;138.18;;;131.63;;
49175;SDS011;35012;47.200;9.748;2022-07-12T14:26:28;107.47;;;102.97;;
49175;SDS011;35012;47.200;9.748;2022-07-12T14:28:53;127.50;;;122.20;;
49175;SDS011;35012;47.200;9.748;2022-07-12T14:31:19;120.05;;;114.93;;
49175;SDS011;35012;47.200;9.748;2022-07-12T14:33:45;110.03;;;105.57;;
49175;SDS011;35012;47.200;9.748;2022-07-12T14:36:10;105.82;;;101.57;;
49175;SDS011;35012;47.200;9.748;2022-07-12T14:38:36;113.78;;;108.97;;
49175;SDS011;35012;47.200;9.748;2022-07-12T14:41:01;111.10;;;106.50;;
49175;SDS011;35012;47.200;9.748;2022-07-12T14:43:27;111.63;;;107.05;;
49175;SDS011;35012;47.200;9.748;2022-07-12T14:45:53;174.30;;;166.10;;
49175;SDS011;35012;47.200;9.748;2022-07-12T14:48:18;117.28;;;112.18;;